Latest Weather Observations for Cairns

IDQ60801

Issued at 5:02 pm EST Tuesday 26 September 2017 (issued every 30 minutes, with the page automatically refreshed every 10 minutes)

About weather observations | Map of weather stations | Latest weather observations for QLD | Other Formats
Station Details ID: 031011 Name: CAIRNS AERO Lat: -16.87 Lon: 145.75 Height: 2.22 m
Data from the previous 72 hours. | See also: Recent months at Cairns
Date/Time
EST
Temp
°C
App
Temp
°C
Dew
Point
°C
Rel
Hum
%
Delta-T
°C
Wind Press
QNH
hPa
Press
MSL
hPa
Rain since
9am
mm
Dir  Spd
km/h
Gust
km/h
Spd
kts
Gust
kts
26/04:30pm 27.0 27.5 20.8 69 4.1 ENE 19 24 10 13 1012.8 1012.8 0.0
26/04:00pm 27.4 28.1 20.5 66 4.5 NE 17 24 9 13 1012.8 1012.8 0.0
26/03:30pm 27.2 27.5 20.3 66 4.5 ENE 19 28 10 15 1012.8 1012.8 0.0
26/03:00pm 27.6 27.9 19.7 62 5.1 NE 17 22 9 12 1012.9 1012.9 0.0
26/02:30pm 27.6 28.3 20.4 65 4.7 NE 17 22 9 12 1013.3 1013.3 0.0
26/02:00pm 27.8 28.3 20.1 63 5.0 ENE 17 26 9 14 1013.7 1013.7 0.0
26/01:30pm 28.1 28.3 20.1 62 5.2 NE 19 26 10 14 1013.9 1013.9 0.0
26/01:00pm 27.9 28.0 19.9 61 5.2 NE 19 26 10 14 1014.2 1014.2 0.0
26/12:30pm 28.0 28.4 19.8 61 5.3 NE 17 32 9 17 1014.7 1014.7 0.0
26/12:00pm 27.5 27.9 19.8 63 5.0 NE 17 26 9 14 1015.3 1015.3 0.0
26/11:30am 28.0 28.4 19.0 58 5.8 NE 15 19 8 10 1015.6 1015.6 0.0
26/11:00am 27.8 28.6 19.1 59 5.6 ENE 13 17 7 9 1016.1 1016.1 0.0
26/10:30am 27.5 28.2 18.8 59 5.6 NE 13 19 7 10 1016.3 1016.3 0.0
26/10:00am 27.6 29.0 18.6 58 5.8 ENE 9 15 5 8 1016.4 1016.4 0.0
26/09:30am 26.6 28.4 19.5 65 4.6 SE 9 15 5 8 1016.5 1016.5 0.0
26/09:00am 25.8 26.8 18.7 65 4.5 SSE 11 15 6 8 1016.4 1016.4 0.0
26/08:30am 25.5 26.2 18.9 67 4.2 SSE 13 19 7 10 1016.2 1016.2 0.0
26/08:00am 22.9 22.2 18.2 75 2.9 SE 19 20 10 11 1016.1 1016.1 0.0
26/07:30am 21.9 21.2 18.7 82 2.0 SE 20 24 11 13 1015.8 1015.8 0.0
26/07:00am 20.3 22.1 18.4 89 1.2 SW 6 9 3 5 1015.5 1015.5 0.0
26/06:30am 19.3 21.0 18.0 92 0.8 S 6 11 3 6 1015.1 1015.1 0.0
26/06:00am 18.6 21.2 17.6 94 0.6 CALM 0 0 0 0 1014.8 1014.8 0.0
26/05:30am 19.0 20.6 17.8 93 0.7 WSW 6 7 3 4 1014.6 1014.6 0.0
26/05:00am 19.4 19.9 17.5 89 1.2 SSE 11 15 6 8 1014.2 1014.2 0.0
26/04:30am 18.8 21.5 17.8 94 0.6 CALM 0 0 0 0 1014.0 1014.0 0.0
26/04:00am 19.6 21.3 18.1 91 0.9 W 6 7 3 4 1013.7 1013.7 0.0
26/03:30am 20.2 21.3 18.1 88 1.3 SSE 9 17 5 9 1013.6 1013.6 0.0
26/03:00am 19.4 22.3 18.2 93 0.7 CALM 0 0 0 0 1013.7 1013.7 0.0
26/02:30am 19.5 21.5 17.8 90 1.0 WNW 4 6 2 3 1013.8 1013.8 0.0
26/02:00am 20.3 21.5 18.2 88 1.3 SSE 9 13 5 7 1013.8 1013.8 0.0
26/01:30am 20.4 22.8 18.0 86 1.5 SSE 2 11 1 6 1014.2 1014.2 0.0
26/01:00am 20.7 22.5 18.3 86 1.5 SSE 6 7 3 4 1014.5 1014.5 0.0
26/12:30am 21.2 23.3 18.0 82 2.0 S 4 7 2 4 1014.7 1014.7 0.0
26/12:00am 22.4 24.9 18.2 77 2.6 SW 2 9 1 5 1014.9 1014.9 0.0
 
Date/Time
EST
Temp
°C
App
Temp
°C
Dew
Point
°C
Rel
Hum
%
Delta-T
°C
Wind Press
QNH
hPa
Press
MSL
hPa
Rain since
9am
mm
Dir  Spd
km/h
Gust
km/h
Spd
kts
Gust
kts
25/11:30pm 23.1 23.9 18.2 74 3.1 SSE 11 11 6 6 1015.2 1015.2 0.0
25/11:00pm 22.7 24.4 18.5 77 2.6 SE 7 13 4 7 1015.4 1015.4 0.0
25/10:30pm 21.8 23.9 18.2 80 2.2 SSE 4 9 2 5 1015.3 1015.3 0.0
25/10:00pm 21.0 24.1 18.6 86 1.5 CALM 0 0 0 0 1015.5 1015.5 0.0
25/09:30pm 21.0 24.0 18.4 85 1.6 CALM 0 0 0 0 1015.5 1015.5 0.0
25/09:00pm 21.3 24.0 17.7 80 2.2 CALM 0 0 0 0 1015.3 1015.3 0.0
25/08:30pm 21.4 24.2 18.0 81 2.1 CALM 0 0 0 0 1014.9 1014.9 0.0
25/08:00pm 22.7 25.5 18.0 75 2.9 CALM 0 0 0 0 1014.6 1014.6 0.0
25/07:30pm 22.8 23.9 17.9 74 3.1 SSE 9 13 5 7 1014.3 1014.3 0.0
25/07:00pm 23.0 23.8 18.1 74 3.1 E 11 15 6 8 1013.8 1013.8 0.0
25/06:30pm 23.8 24.2 18.2 71 3.5 ENE 13 17 7 9 1013.5 1013.5 0.0
25/06:00pm 24.5 24.5 18.2 68 4.0 ENE 15 19 8 10 1013.4 1013.4 0.0
25/05:30pm 25.3 25.3 18.0 64 4.6 ENE 15 22 8 12 1013.1 1013.1 0.0
25/05:00pm 26.1 25.8 18.2 61 5.0 NE 17 24 9 13 1013.0 1013.0 0.0
25/04:30pm 26.7 25.9 18.0 59 5.5 NE 19 26 10 14 1012.9 1012.9 0.0
25/04:00pm 26.5 25.6 18.1 60 5.3 ENE 20 30 11 16 1012.8 1012.8 0.0
25/03:30pm 27.0 26.3 19.4 63 4.9 ENE 22 30 12 16 1012.8 1012.8 0.0
25/03:00pm 27.4 26.8 19.7 63 5.0 NE 22 30 12 16 1012.9 1012.9 0.0
25/02:30pm 28.0 26.9 18.7 57 6.0 NE 22 28 12 15 1013.2 1013.2 0.0
25/02:00pm 27.8 26.1 18.2 56 6.1 ENE 24 32 13 17 1013.7 1013.7 0.0
25/01:30pm 28.3 26.5 17.8 53 6.7 NE 24 33 13 18 1013.9 1013.9 0.0
25/01:00pm 27.7 26.4 17.3 53 6.5 NE 20 26 11 14 1014.1 1014.1 0.0
25/12:30pm 28.2 27.1 17.7 53 6.6 ENE 20 30 11 16 1014.6 1014.6 0.0
25/12:00pm 28.3 27.1 17.5 52 6.8 NE 20 26 11 14 1015.1 1015.1 0.0
25/11:30am 27.9 27.9 17.1 51 6.8 NE 13 22 7 12 1015.6 1015.6 0.0
25/11:00am 27.5 27.1 17.1 53 6.5 SE 15 22 8 12 1016.1 1016.1 0.0
25/10:30am 27.0 26.9 16.9 54 6.3 SE 13 22 7 12 1016.5 1016.5 0.0
25/10:00am 26.5 25.5 16.7 55 6.1 SSE 17 24 9 13 1016.6 1016.6 0.0
25/09:30am 25.7 24.4 16.8 58 5.5 SSE 19 28 10 15 1016.8 1016.8 0.0
25/09:00am 24.7 23.8 16.9 62 4.8 S 17 26 9 14 1017.0 1017.0 0.0
25/08:30am 24.3 23.8 16.8 63 4.6 S 15 19 8 10 1016.7 1016.7 0.0
25/08:00am 23.9 25.1 16.9 65 4.3 SSW 6 17 3 9 1016.5 1016.5 0.0
25/07:30am 21.4 21.2 17.6 79 2.3 SE 15 19 8 10 1016.1 1016.1 0.0
25/07:00am 19.2 21.1 17.7 91 0.9 WSW 4 7 2 4 1015.9 1015.9 0.0
25/06:30am 17.1 19.1 16.1 94 0.6 CALM 0 0 0 0 1015.7 1015.7 0.0
25/06:00am 17.3 19.4 16.2 93 0.7 CALM 0 0 0 0 1015.3 1015.3 0.0
25/05:30am 18.2 20.4 16.5 90 1.0 CALM 0 6 0 3 1015.1 1015.1 0.0
25/05:00am 18.3 19.4 16.5 89 1.1 SW 6 11 3 6 1014.7 1014.7 0.0
25/04:30am 19.4 19.5 16.6 84 1.7 SSE 11 15 6 8 1014.4 1014.4 0.0
25/04:00am 19.1 18.5 16.7 86 1.4 SE 15 19 8 10 1014.2 1014.2 0.0
25/03:30am 19.2 17.8 16.6 85 1.6 SE 19 24 10 13 1013.9 1013.9 0.0
25/03:00am 19.5 19.5 17.3 87 1.3 SE 13 19 7 10 1013.9 1013.9 0.0
25/02:30am 19.2 20.9 17.2 88 1.2 SSW 4 11 2 6 1014.1 1014.1 0.0
25/02:00am 19.5 20.9 17.3 87 1.3 SSW 6 9 3 5 1014.4 1014.4 0.0
25/01:30am 19.9 19.3 17.5 86 1.5 SE 17 19 9 10 1014.5 1014.5 0.0
25/01:00am 20.3 21.8 17.7 85 1.6 SSE 6 11 3 6 1014.6 1014.6 0.0
25/12:30am 19.9 21.3 17.7 87 1.4 SSE 7 15 4 8 1014.8 1014.8 0.0
25/12:00am 19.5 21.3 17.3 87 1.3 SSE 4 9 2 5 1015.1 1015.1 0.0
 
Date/Time
EST
Temp
°C
App
Temp
°C
Dew
Point
°C
Rel
Hum
%
Delta-T
°C
Wind Press
QNH
hPa
Press
MSL
hPa
Rain since
9am
mm
Dir  Spd
km/h
Gust
km/h
Spd
kts
Gust
kts
24/11:30pm 19.8 22.4 17.4 86 1.5 CALM 0 0 0 0 1015.3 1015.3 0.0
24/11:00pm 20.6 22.7 17.2 81 2.1 SSE 2 7 1 4 1015.5 1015.5 0.0
24/10:30pm 21.1 22.0 17.5 80 2.2 SE 9 13 5 7 1015.6 1015.6 0.0
24/10:00pm 21.6 22.8 17.4 77 2.6 S 7 11 4 6 1015.5 1015.5 0.0
24/09:30pm 21.0 22.4 17.4 80 2.2 SE 6 9 3 5 1015.4 1015.4 0.0
24/09:00pm 21.7 22.6 17.5 77 2.6 SSE 9 11 5 6 1015.4 1015.4 0.0
24/08:30pm 21.7 22.9 17.3 76 2.7 S 7 9 4 5 1015.0 1015.0 0.0
24/08:00pm 21.8 23.1 17.2 75 2.8 SSE 6 9 3 5 1014.6 1014.6 0.0
24/07:30pm 22.3 23.4 17.2 73 3.1 SSE 7 9 4 5 1014.4 1014.4 0.0
24/07:00pm 23.4 23.5 17.4 69 3.7 ESE 13 15 7 8 1014.1 1014.1 0.0
24/06:30pm 24.0 23.8 17.5 67 4.0 ESE 15 19 8 10 1014.0 1014.0 0.0
24/06:00pm 24.5 24.1 18.0 67 4.1 ESE 17 24 9 13 1013.7 1013.7 0.0
24/05:30pm 25.1 24.2 17.8 64 4.6 E 19 26 10 14 1013.3 1013.3 0.0
24/05:00pm 26.3 24.8 17.6 58 5.5 E 22 30 12 16 1013.1 1013.1 0.0
24/04:30pm 26.9 24.8 17.1 55 6.1 E 24 30 13 16 1012.9 1012.9 0.0
24/04:00pm 27.2 25.0 16.8 53 6.5 E 24 32 13 17 1012.9 1012.9 0.0
24/03:30pm 28.1 25.8 16.7 50 7.1 E 24 32 13 17 1012.9 1012.9 0.0
24/03:00pm 28.3 26.1 16.9 50 7.1 ENE 24 30 13 16 1013.2 1013.2 0.0
24/02:30pm 28.0 25.5 17.2 52 6.8 ENE 26 33 14 18 1013.5 1013.5 0.0
24/02:00pm 28.2 25.9 17.7 53 6.6 E 26 33 14 18 1013.8 1013.8 0.0
24/01:30pm 28.4 26.0 17.3 51 7.0 E 26 32 14 17 1014.2 1014.2 0.0
24/01:00pm 28.5 27.0 17.7 52 6.8 ESE 22 33 12 18 1014.6 1014.6 0.0
24/12:30pm 28.6 26.3 17.5 51 7.0 ESE 26 33 14 18 1015.0 1015.0 0.0
24/12:00pm 27.7 26.4 16.9 51 6.7 E 19 35 10 19 1015.4 1015.4 0.0
24/11:30am 28.2 27.0 17.1 51 7.0 ESE 19 32 10 17 1015.9 1015.9 0.0
24/11:00am 27.6 26.2 16.9 52 6.7 SE 20 32 11 17 1016.3 1016.3 0.0
24/10:30am 27.1 26.0 17.3 55 6.1 SE 19 28 10 15 1016.5 1016.5 0.0
24/10:00am 27.1 26.8 17.3 55 6.1 SE 15 22 8 12 1016.8 1016.8 0.0
24/09:30am 25.9 25.7 17.5 59 5.3 S 15 26 8 14 1017.0 1017.0 0.0
24/09:00am 25.8 25.1 17.4 59 5.2 SSE 17 26 9 14 1017.2 1017.2 0.0
24/08:30am 25.0 24.0 16.7 60 5.1 S 17 24 9 13 1017.0 1017.0 0.0
24/08:00am 24.2 23.5 17.4 65 4.2 S 17 26 9 14 1016.7 1016.7 0.0
24/07:30am 22.7 21.6 17.4 72 3.3 SE 19 22 10 12 1016.3 1016.3 0.0
24/07:00am 20.7 20.0 17.3 81 2.1 SE 17 20 9 11 1016.0 1016.0 0.0
24/06:30am 19.2 18.3 16.8 86 1.4 SE 17 20 9 11 1015.8 1015.8 0.0
24/06:00am 19.2 18.6 16.6 85 1.6 SE 15 20 8 11 1015.5 1015.5 0.0
24/05:30am 19.3 19.1 16.7 85 1.6 SE 13 17 7 9 1015.3 1015.3 0.0
24/05:00am 19.5 19.5 17.1 86 1.5 SE 13 17 7 9 1015.1 1015.1 0.0
24/04:30am 19.7 19.5 17.5 87 1.3 SE 15 17 8 9 1014.9 1014.9 0.0
24/04:00am 21.7 22.3 16.9 74 2.9 S 9 17 5 9 1014.5 1014.5 0.0
24/03:30am 21.2 21.5 17.0 77 2.6 SSE 11 13 6 7 1014.6 1014.6 0.0
24/03:00am 21.7 22.1 17.3 76 2.7 S 11 15 6 8 1015.0 1015.0 0.0
24/02:30am 21.3 22.7 17.7 80 2.2 SSE 7 11 4 6 1015.1 1015.1 0.0
24/02:00am 19.8 21.2 17.8 88 1.2 SSE 7 15 4 8 1015.3 1015.3 0.0
24/01:30am 20.7 21.1 18.1 85 1.6 SE 13 17 7 9 1015.4 1015.4 0.0
24/01:00am 21.0 20.8 18.4 85 1.6 SE 17 19 9 10 1015.6 1015.6 0.0
24/12:30am 21.2 21.6 18.2 83 1.9 SSE 13 17 7 9 1015.7 1015.7 0.0
24/12:00am 21.7 22.2 18.3 81 2.1 SSE 13 19 7 10 1015.9 1015.9 0.0
 
Date/Time
EST
Temp
°C
App
Temp
°C
Dew
Point
°C
Rel
Hum
%
Delta-T
°C
Wind Press
QNH
hPa
Press
MSL
hPa
Rain since
9am
mm
Dir  Spd
km/h
Gust
km/h
Spd
kts
Gust
kts
23/11:30pm 21.6 22.2 18.6 83 1.9 SE 13 15 7 8 1016.1 1016.1 0.0
23/11:00pm 22.0 22.7 18.8 82 2.0 SE 13 17 7 9 1016.2 1016.2 0.0
23/10:30pm 22.2 22.8 18.6 80 2.3 SSE 13 17 7 9 1016.3 1016.3 0.0
23/10:00pm 21.8 22.4 18.6 82 2.0 SSE 13 13 7 7 1016.4 1016.4 0.0
23/09:30pm 22.2 23.1 18.4 79 2.4 SSE 11 15 6 8 1016.3 1016.3 0.0
23/09:00pm 22.7 23.0 18.7 78 2.5 SSE 15 17 8 9 1016.0 1016.0 0.0
23/08:30pm 22.5 23.1 18.7 79 2.4 SSE 13 15 7 8 1015.8 1015.8 0.0
23/08:00pm 22.6 23.9 18.4 77 2.6 SSE 9 11 5 6 1015.8 1015.8 0.0
23/07:30pm 23.3 24.0 18.8 76 2.8 SE 13 17 7 9 1015.5 1015.5 0.0
23/07:00pm 23.6 23.8 18.5 73 3.2 SE 15 17 8 9 1015.3 1015.3 0.0
23/06:30pm 24.3 24.7 18.9 72 3.4 ESE 15 19 8 10 1015.1 1015.1 0.0
23/06:00pm 24.6 24.6 19.0 71 3.6 E 17 24 9 13 1014.9 1014.9 0.0
23/05:30pm 25.4 24.9 19.1 68 4.0 E 20 30 11 16 1014.6 1014.6 0.0

Other Formats:

Comma delimited format used in spreadsheet applications
http://www.bom.gov.au/fwo/IDQ60801/IDQ60801.94287.axf

JavaScript Object Notation format (JSON) in row-major order
http://www.bom.gov.au/fwo/IDQ60801/IDQ60801.94287.json